Time;durP1;ratioP1;P1;durP2;ratioP2;P2;SDS_P1;SDS_P2;PMS_P1;PMS_P2;Temp;Humidity;BMP_temperature;BMP_pressure;BME280_temperature;BME280_humidity;BME280_pressure;Samples;Min_cycle;Max_cycle;Signal;HPM_P1;HPM_P2
2024/02/25 00:01:42;;;;;;;15.13;5.80;;;;;;;3.07;100.00;100028.25;5055495;28;20514;-78
2024/02/25 00:04:08;;;;;;;8.15;5.60;;;;;;;3.08;100.00;100022.06;5055371;28;20040;-79
2024/02/25 00:06:34;;;;;;;9.32;5.72;;;;;;;3.09;100.00;100026.38;5037705;28;20060;-79
2024/02/25 00:08:59;;;;;;;8.77;5.85;;;;;;;3.08;100.00;100029.94;5055499;28;20474;-77
2024/02/25 00:11:24;;;;;;;9.52;5.70;;;;;;;3.12;100.00;100025.28;5055242;28;20076;-78
2024/02/25 00:13:50;;;;;;;9.68;5.20;;;;;;;3.12;100.00;100022.66;5056762;28;20463;-78
2024/02/25 00:16:16;;;;;;;7.43;5.30;;;;;;;3.13;100.00;100025.19;5053633;28;20119;-78
2024/02/25 00:18:41;;;;;;;10.50;6.13;;;;;;;3.09;100.00;100026.38;5054850;28;20041;-77
2024/02/25 00:21:07;;;;;;;13.15;6.35;;;;;;;3.11;100.00;100021.00;5055062;28;20059;-78
2024/02/25 00:23:32;;;;;;;10.30;6.15;;;;;;;3.09;100.00;100023.75;5053275;28;20078;-77
2024/02/25 00:25:58;;;;;;;12.50;6.40;;;;;;;3.08;100.00;100027.31;5053580;28;20118;-78
2024/02/25 00:28:23;;;;;;;10.55;5.65;;;;;;;3.11;100.00;100021.84;5054643;28;20309;-78
2024/02/25 00:30:48;;;;;;;9.68;6.95;;;;;;;3.12;100.00;100023.53;5053563;28;20025;-78
2024/02/25 00:33:14;;;;;;;16.05;7.32;;;;;;;3.15;100.00;100018.03;5052920;28;20499;-78
2024/02/25 00:35:39;;;;;;;11.15;7.20;;;;;;;3.17;100.00;100024.00;5036482;28;20072;-78
2024/02/25 00:38:04;;;;;;;11.82;7.38;;;;;;;3.17;100.00;100012.66;5054129;28;20029;-78
2024/02/25 00:40:31;;;;;;;12.65;7.43;;;;;;;3.18;100.00;100017.00;5053417;28;20433;-78
2024/02/25 00:42:56;;;;;;;11.05;7.40;;;;;;;3.20;100.00;100024.75;5054768;28;20037;-77
2024/02/25 00:45:22;;;;;;;10.80;8.40;;;;;;;3.18;100.00;100023.06;5054178;28;20530;-78
2024/02/25 00:47:47;;;;;;;13.57;8.35;;;;;;;3.18;100.00;100019.63;5052710;28;20037;-78
2024/02/25 00:50:13;;;;;;;9.15;6.97;;;;;;;3.20;100.00;100022.13;5053862;28;20090;-78
2024/02/25 00:52:38;;;;;;;14.10;7.00;;;;;;;3.21;100.00;100026.41;5053611;28;20029;-77
2024/02/25 00:55:04;;;;;;;9.88;7.32;;;;;;;3.21;100.00;100023.78;5054023;28;20116;-77
2024/02/25 00:57:30;;;;;;;10.18;7.43;;;;;;;3.21;100.00;100021.16;5053995;28;20091;-78
2024/02/25 00:59:55;;;;;;;9.98;6.90;;;;;;;3.20;100.00;100017.69;5053669;28;20021;-78
2024/02/25 01:02:21;;;;;;;11.70;7.13;;;;;;;3.19;100.00;100016.00;5052684;28;20032;-77
2024/02/25 01:04:46;;;;;;;9.18;6.78;;;;;;;3.20;100.00;100022.13;5052293;28;20115;-78
2024/02/25 01:07:11;;;;;;;11.05;6.63;;;;;;;3.22;100.00;100022.84;5052462;28;20044;-77
2024/02/25 01:09:37;;;;;;;9.07;6.70;;;;;;;3.22;100.00;100022.84;5053715;28;20037;-77
2024/02/25 01:12:03;;;;;;;9.60;6.88;;;;;;;3.22;100.00;100021.03;5053695;28;20332;-77
2024/02/25 01:14:28;;;;;;;10.45;7.25;;;;;;;3.20;100.00;100022.97;5053028;28;20069;-77
2024/02/25 01:16:54;;;;;;;7.22;6.50;;;;;;;3.21;100.00;100022.03;5053126;28;20433;-77
2024/02/25 01:19:20;;;;;;;11.73;7.28;;;;;;;3.20;100.00;100020.34;5053386;28;20033;-78
2024/02/25 01:21:47;;;;;;;9.40;7.22;;;;;;;3.22;100.00;100017.59;5053059;28;20136;-78
2024/02/25 01:24:12;;;;;;;9.23;7.28;;;;;;;3.22;100.00;100018.41;5053166;28;20110;-78
2024/02/25 01:26:39;;;;;;;10.48;7.70;;;;;;;3.21;100.00;100011.50;5052149;28;20167;-77
2024/02/25 01:29:05;;;;;;;14.77;8.63;;;;;;;3.22;100.00;100014.97;5053061;28;20478;-78
2024/02/25 01:31:30;;;;;;;10.80;8.98;;;;;;;3.23;100.00;100020.09;5051917;28;20080;-78
2024/02/25 01:33:56;;;;;;;17.55;11.13;;;;;;;3.25;100.00;100015.56;5052630;28;20036;-78
2024/02/25 01:36:21;;;;;;;15.90;10.82;;;;;;;3.25;100.00;100015.56;5052962;28;20083;-79
2024/02/25 01:38:46;;;;;;;18.95;11.65;;;;;;;3.26;100.00;100006.72;5051461;28;20114;-78
2024/02/25 01:41:12;;;;;;;18.85;11.23;;;;;;;3.29;100.00;100010.94;5052702;28;20060;-78
2024/02/25 01:43:40;;;;;;;18.23;11.95;;;;;;;3.29;100.00;100008.31;5053062;28;20037;-78
2024/02/25 01:46:11;;;;;;;18.67;12.55;;;;;;;3.28;100.00;100010.06;5052849;28;20110;-78
2024/02/25 01:48:37;;;;;;;18.42;12.65;;;;;;;3.27;100.00;100002.31;5051411;28;20037;-78
2024/02/25 01:51:03;;;;;;;20.42;11.85;;;;;;;3.25;100.00;100004.22;5052628;28;20029;-78
2024/02/25 01:53:29;;;;;;;23.98;13.23;;;;;;;3.26;100.00;100000.66;5052554;28;20045;-79
2024/02/25 01:55:56;;;;;;;17.67;11.07;;;;;;;3.25;100.00;100004.22;5051381;28;20136;-78
2024/02/25 01:58:22;;;;;;;20.10;12.77;;;;;;;3.23;100.00;100004.34;5052018;28;20047;-78
2024/02/25 02:00:48;;;;;;;17.38;11.80;;;;;;;3.25;100.00;100014.72;5052223;28;20111;-78
2024/02/25 02:03:15;;;;;;;16.80;11.82;;;;;;;3.25;100.00;100006.84;5052451;28;20107;-79
2024/02/25 02:05:41;;;;;;;22.15;12.68;;;;;;;3.27;100.00;100010.19;5052253;28;20075;-79
2024/02/25 02:08:07;;;;;;;16.33;11.80;;;;;;;3.29;100.00;100014.41;5051792;28;20029;-80
2024/02/25 02:10:32;;;;;;;17.75;12.10;;;;;;;3.31;100.00;100014.28;5033996;28;20028;-79
2024/02/25 02:13:01;;;;;;;18.00;12.45;;;;;;;3.31;100.00;100003.75;5052076;28;20048;-79
2024/02/25 02:15:26;;;;;;;23.05;13.85;;;;;;;3.32;100.00;100011.53;5035184;28;20432;-79
2024/02/25 02:17:52;;;;;;;21.67;13.38;;;;;;;3.34;100.00;100008.78;5051940;28;20107;-78
2024/02/25 02:20:20;;;;;;;23.35;14.25;;;;;;;3.33;100.00;100010.59;5051012;28;20029;-79
2024/02/25 02:22:47;;;;;;;24.95;14.77;;;;;;;3.34;100.00;100011.44;5052147;28;20078;-79
2024/02/25 02:25:17;;;;;;;25.05;14.98;;;;;;;3.36;100.00;100014.81;5050750;28;20031;-78
2024/02/25 02:27:44;;;;;;;30.17;15.75;;;;;;;3.37;100.00;100019.09;5051995;28;20339;-78
2024/02/25 02:30:11;;;;;;;22.73;14.40;;;;;;;3.37;100.00;100011.19;5051128;28;20417;-79
2024/02/25 02:32:37;;;;;;;26.70;14.75;;;;;;;3.37;100.00;100010.38;5052216;28;20341;-78
2024/02/25 02:35:03;;;;;;;23.48;14.50;;;;;;;3.37;100.00;100005.94;5051556;28;20036;-78
2024/02/25 02:37:29;;;;;;;22.80;14.73;;;;;;;3.39;100.00;100011.94;5050500;28;20040;-79
2024/02/25 02:39:55;;;;;;;27.23;15.05;;;;;;;3.39;100.00;100011.94;5051689;28;20055;-78
2024/02/25 02:42:20;;;;;;;23.20;14.52;;;;;;;3.39;100.00;100014.56;5050121;28;20463;-78
2024/02/25 02:44:48;;;;;;;22.85;14.15;;;;;;;3.39;100.00;100006.69;5052515;28;20064;-79
2024/02/25 02:47:14;;;;;;;24.27;14.75;;;;;;;3.41;100.00;100009.19;5051586;28;20025;-78
2024/02/25 02:49:40;;;;;;;24.67;15.02;;;;;;;3.41;100.00;100001.31;5051828;28;20120;-78
2024/02/25 02:52:05;;;;;;;25.95;16.17;;;;;;;3.40;100.00;100005.72;5051590;28;20056;-78
2024/02/25 02:54:31;;;;;;;27.08;16.90;;;;;;;3.40;100.00;100005.72;5051979;28;20102;-78
2024/02/25 02:56:56;;;;;;;28.65;16.63;;;;;;;3.39;100.00;100003.19;5050426;28;20463;-78
2024/02/25 02:59:22;;;;;;;28.58;15.95;;;;;;;3.39;100.00;100006.69;5034018;28;20511;-78
2024/02/25 03:01:52;;;;;;;26.08;16.75;;;;;;;3.39;100.00;100006.69;5050769;28;20039;-78
2024/02/25 03:04:18;;;;;;;25.02;16.13;;;;;;;3.39;100.00;100008.44;5051419;28;20041;-78
2024/02/25 03:06:44;;;;;;;26.55;15.65;;;;;;;3.40;100.00;100007.50;5051635;28;20029;-78
2024/02/25 03:09:09;;;;;;;26.20;15.88;;;;;;;3.40;100.00;100004.88;5051718;28;20151;-78
2024/02/25 03:11:35;;;;;;;27.38;16.98;;;;;;;3.40;100.00;100007.50;5052037;28;20029;-79
2024/02/25 03:14:01;;;;;;;25.70;15.40;;;;;;;3.40;100.00;100000.44;5051790;28;20032;-79
2024/02/25 03:16:26;;;;;;;28.70;16.17;;;;;;;3.41;100.00;99999.50;5050144;28;20457;-79
2024/02/25 03:18:52;;;;;;;27.88;16.55;;;;;;;3.42;100.00;100000.34;5051272;28;20035;-78
2024/02/25 03:21:17;;;;;;;28.92;16.70;;;;;;;3.41;100.00;99996.03;5053468;28;20029;-78
2024/02/25 03:23:43;;;;;;;31.63;16.55;;;;;;;3.39;100.00;99992.69;5055192;28;20126;-78
2024/02/25 03:26:19;;;;;;;27.05;16.77;;;;;;;3.36;100.00;99993.75;5054354;28;20106;-79
2024/02/25 03:28:44;;;;;;;31.50;17.08;;;;;;;3.38;100.00;100004.16;5055021;28;20136;-79
2024/02/25 03:31:10;;;;;;;34.63;18.50;;;;;;;3.35;100.00;99997.34;5055062;28;20113;-78
2024/02/25 03:33:35;;;;;;;35.20;18.08;;;;;;;3.37;100.00;99997.22;5055322;28;20454;-80
2024/02/25 03:36:01;;;;;;;33.28;18.60;;;;;;;3.34;100.00;100000.91;5055300;28;20071;-78
2024/02/25 03:38:27;;;;;;;33.90;18.92;;;;;;;3.33;100.00;100000.09;5055000;28;20033;-78
2024/02/25 03:40:55;;;;;;;34.22;18.92;;;;;;;3.33;100.00;100001.88;5055017;28;20098;-78
2024/02/25 03:43:21;;;;;;;35.28;19.65;;;;;;;3.31;100.00;99995.88;5055241;28;20052;-79
2024/02/25 03:45:47;;;;;;;35.88;19.40;;;;;;;3.33;100.00;100000.09;5056120;28;20041;-78
2024/02/25 03:48:12;;;;;;;34.13;19.27;;;;;;;3.33;100.00;99996.63;5055239;28;20033;-77
2024/02/25 03:50:38;;;;;;;41.30;19.65;;;;;;;3.37;100.00;100003.31;5055214;28;20032;-79
2024/02/25 03:53:04;;;;;;;44.63;20.90;;;;;;;3.38;100.00;100002.38;5055181;28;20032;-78
2024/02/25 03:55:29;;;;;;;38.10;20.38;;;;;;;3.39;100.00;100008.44;5056493;28;20025;-77
2024/02/25 03:57:55;;;;;;;37.00;20.05;;;;;;;3.39;100.00;100004.06;5054113;28;20387;-78
2024/02/25 04:00:21;;;;;;;41.13;19.88;;;;;;;3.39;100.00;100005.81;5055252;28;20037;-78
2024/02/25 04:02:46;;;;;;;34.92;19.17;;;;;;;3.40;100.00;100013.59;5037815;28;20108;-78
2024/02/25 04:05:13;;;;;;;34.70;19.58;;;;;;;3.40;100.00;100004.88;5054754;28;20052;-77
2024/02/25 04:07:41;;;;;;;32.10;18.38;;;;;;;3.42;100.00;100005.59;5055297;28;20055;-80
2024/02/25 04:10:08;;;;;;;31.27;18.30;;;;;;;3.40;100.00;100002.25;5055765;28;20167;-77
2024/02/25 04:12:33;;;;;;;35.55;19.88;;;;;;;3.41;100.00;100006.56;5054972;28;20371;-79
2024/02/25 04:14:59;;;;;;;39.08;19.15;;;;;;;3.42;100.00;100013.47;5054615;28;20139;-77
2024/02/25 04:17:26;;;;;;;35.83;18.70;;;;;;;3.41;100.00;100010.03;5054382;28;20494;-78
2024/02/25 04:19:52;;;;;;;30.05;17.95;;;;;;;3.42;100.00;100013.47;5054493;28;20032;-78
2024/02/25 04:22:18;;;;;;;35.75;19.27;;;;;;;3.39;100.00;100004.06;5054788;28;20029;-79
2024/02/25 04:24:43;;;;;;;30.42;17.48;;;;;;;3.40;100.00;100007.50;5054638;28;20450;-78
2024/02/25 04:27:08;;;;;;;28.48;17.90;;;;;;;3.40;100.00;100004.88;5053646;28;20025;-79
2024/02/25 04:29:37;;;;;;;31.05;16.48;;;;;;;3.41;100.00;100012.66;5054646;28;20383;-78
2024/02/25 04:32:02;;;;;;;28.70;17.98;;;;;;;3.42;100.00;100002.97;5053633;28;20071;-78
2024/02/25 04:34:28;;;;;;;34.45;18.00;;;;;;;3.42;100.00;100005.59;5054471;28;20466;-78
2024/02/25 04:36:53;;;;;;;30.10;17.23;;;;;;;3.41;100.00;100007.41;5054552;28;20418;-78
2024/02/25 04:39:18;;;;;;;28.90;17.98;;;;;;;3.41;100.00;100006.56;5052572;28;20389;-78
2024/02/25 04:41:44;;;;;;;33.20;17.95;;;;;;;3.42;100.00;100010.84;5053722;28;20045;-79
2024/02/25 04:44:10;;;;;;;29.02;17.08;;;;;;;3.42;100.00;100016.97;5053877;28;20501;-79
2024/02/25 04:46:35;;;;;;;30.23;17.40;;;;;;;3.44;100.00;100011.59;5054079;28;20431;-79
2024/02/25 04:49:01;;;;;;;27.35;17.15;;;;;;;3.46;100.00;100009.69;5053405;28;20029;-78
2024/02/25 04:51:26;;;;;;;24.70;16.50;;;;;;;3.46;100.00;100012.31;5054485;28;20040;-79
2024/02/25 04:53:57;;;;;;;26.00;16.15;;;;;;;3.44;100.00;100004.53;5052924;28;20033;-79
2024/02/25 04:56:25;;;;;;;26.90;16.15;;;;;;;3.43;100.00;100010.75;5054375;28;20056;-78
2024/02/25 04:58:50;;;;;;;27.23;16.10;;;;;;;3.41;100.00;100012.66;5054002;28;20033;-78
2024/02/25 05:01:16;;;;;;;23.67;14.65;;;;;;;3.41;100.00;100014.47;5052245;28;20040;-78
2024/02/25 05:03:41;;;;;;;25.13;16.25;;;;;;;3.41;100.00;100022.34;5053538;28;20137;-79
2024/02/25 05:06:06;;;;;;;22.45;15.07;;;;;;;3.42;100.00;100024.00;5052490;28;20431;-78
2024/02/25 05:08:32;;;;;;;25.38;15.77;;;;;;;3.40;100.00;100024.13;5054070;28;20082;-78
2024/02/25 05:10:57;;;;;;;23.27;14.48;;;;;;;3.40;100.00;100013.59;5053828;28;20037;-78
2024/02/25 05:13:23;;;;;;;21.25;13.45;;;;;;;3.41;100.00;100020.53;5052123;28;20044;-78
2024/02/25 05:15:48;;;;;;;21.15;12.95;;;;;;;3.42;100.00;100021.38;5052914;28;20039;-79
2024/02/25 05:18:13;;;;;;;22.50;13.70;;;;;;;3.41;100.00;100023.19;5053234;28;20036;-78
2024/02/25 05:20:39;;;;;;;22.42;13.55;;;;;;;3.41;100.00;100030.25;5053587;28;20459;-78
2024/02/25 05:23:05;;;;;;;20.73;13.05;;;;;;;3.40;100.00;100026.75;5053691;28;20036;-78
2024/02/25 05:25:30;;;;;;;19.25;13.27;;;;;;;3.41;100.00;100027.59;5053779;28;20037;-78
2024/02/25 05:27:56;;;;;;;22.13;13.20;;;;;;;3.41;100.00;100031.06;5052954;28;20474;-78
2024/02/25 05:30:21;;;;;;;19.45;12.73;;;;;;;3.42;100.00;100032.75;5053396;28;20466;-79
2024/02/25 05:32:47;;;;;;;21.80;12.40;;;;;;;3.43;100.00;100037.03;5052276;28;20035;-81
2024/02/25 05:35:12;;;;;;;19.27;12.88;;;;;;;3.46;100.00;100031.59;5053139;28;20057;-79
2024/02/25 05:37:37;;;;;;;17.73;12.00;;;;;;;3.47;100.00;100033.25;5051837;28;20183;-79
2024/02/25 05:40:03;;;;;;;18.75;12.68;;;;;;;3.49;100.00;100038.38;5051884;28;20033;-79
2024/02/25 05:42:29;;;;;;;20.42;13.05;;;;;;;3.51;100.00;100033.88;5053708;28;20061;-79
2024/02/25 05:44:54;;;;;;;19.05;12.80;;;;;;;3.51;100.00;100039.13;5052589;28;20079;-79
2024/02/25 05:47:20;;;;;;;18.27;12.43;;;;;;;3.51;100.00;100039.13;5053256;28;20029;-79
2024/02/25 05:49:46;;;;;;;22.10;12.90;;;;;;;3.50;100.00;100037.44;5052495;28;20099;-79
2024/02/25 05:52:14;;;;;;;23.23;14.25;;;;;;;3.51;100.00;100037.34;5051638;28;20036;-78
2024/02/25 05:54:39;;;;;;;20.27;13.38;;;;;;;3.51;100.00;100039.97;5053033;28;20415;-78
2024/02/25 05:57:05;;;;;;;23.05;13.70;;;;;;;3.53;100.00;100037.22;5052694;28;20116;-79
2024/02/25 05:59:31;;;;;;;22.83;12.77;;;;;;;3.57;100.00;100040.44;5053269;28;20036;-79
2024/02/25 06:01:57;;;;;;;20.17;13.63;;;;;;;3.56;100.00;100044.88;5052761;28;20048;-79
2024/02/25 06:04:22;;;;;;;22.23;13.93;;;;;;;3.59;100.00;100049.09;5034700;28;20033;-79
2024/02/25 06:06:52;;;;;;;21.52;14.23;;;;;;;3.63;100.00;100047.91;5052571;28;20406;-79
2024/02/25 06:09:17;;;;;;;24.42;13.95;;;;;;;3.63;100.00;100055.81;5052600;28;20111;-79
2024/02/25 06:11:43;;;;;;;23.58;14.30;;;;;;;3.64;100.00;100062.72;5052365;28;20035;-78
2024/02/25 06:14:08;;;;;;;23.75;14.50;;;;;;;3.64;100.00;100060.94;5052182;28;20032;-79
2024/02/25 06:16:34;;;;;;;22.17;14.35;;;;;;;3.64;100.00;100062.72;5050914;28;20056;-79
2024/02/25 06:18:59;;;;;;;23.20;16.00;;;;;;;3.63;100.00;100059.25;5051765;28;20036;-79
2024/02/25 06:21:28;;;;;;;25.63;16.23;;;;;;;3.64;100.00;100058.31;5050743;28;20459;-78
2024/02/25 06:23:53;;;;;;;24.58;15.55;;;;;;;3.64;100.00;100062.72;5051022;28;20025;-77
2024/02/25 06:26:19;;;;;;;28.10;16.25;;;;;;;3.63;100.00;100051.38;5052203;28;20032;-78
2024/02/25 06:28:44;;;;;;;29.88;17.10;;;;;;;3.64;100.00;100060.09;5052020;28;20164;-78
2024/02/25 06:31:10;;;;;;;32.03;17.13;;;;;;;3.62;100.00;100052.31;5052113;28;20460;-78
2024/02/25 06:33:35;;;;;;;27.55;16.92;;;;;;;3.61;100.00;100060.31;5052159;28;20082;-78
2024/02/25 06:36:01;;;;;;;28.83;16.77;;;;;;;3.52;100.00;100062.69;5051831;28;20518;-78
2024/02/25 06:38:26;;;;;;;28.95;16.67;;;;;;;3.48;100.00;100060.41;5050720;28;20033;-77
2024/02/25 06:40:52;;;;;;;27.92;17.27;;;;;;;3.43;100.00;100065.13;5050056;28;20056;-77
2024/02/25 06:43:17;;;;;;;26.75;16.83;;;;;;;3.41;100.00;100062.63;5050484;28;20025;-78
2024/02/25 06:45:43;;;;;;;26.75;16.65;;;;;;;3.44;100.00;100061.56;5051383;28;20390;-77
2024/02/25 06:48:08;;;;;;;30.85;16.88;;;;;;;3.47;100.00;100070.06;5051827;28;20046;-77
2024/02/25 06:50:34;;;;;;;27.90;16.88;;;;;;;3.47;100.00;100064.81;5051734;28;20482;-78
2024/02/25 06:53:00;;;;;;;28.38;16.85;;;;;;;3.43;100.00;100067.78;5050615;28;20379;-78
2024/02/25 06:55:26;;;;;;;29.85;17.63;;;;;;;3.37;100.00;100071.69;5051375;28;20107;-77
2024/02/25 06:57:51;;;;;;;24.98;16.27;;;;;;;3.28;100.00;100081.06;5050334;28;20040;-78
2024/02/25 07:00:17;;;;;;;28.58;17.40;;;;;;;3.22;100.00;100078.88;5051521;28;20168;-80
2024/02/25 07:02:42;;;;;;;29.05;16.30;;;;;;;3.19;100.00;100087.00;5051558;28;20477;-79
2024/02/25 07:05:08;;;;;;;28.60;17.15;;;;;;;3.20;100.00;100087.84;5050417;28;20424;-80
2024/02/25 07:07:33;;;;;;;29.67;16.83;;;;;;;3.22;100.00;100086.78;5051284;28;20036;-79
2024/02/25 07:09:59;;;;;;;31.20;16.88;;;;;;;3.28;100.00;100094.22;5050381;28;20044;-80
2024/02/25 07:12:24;;;;;;;32.60;17.88;;;;;;;3.35;100.00;100094.63;5052003;28;20412;-79
2024/02/25 07:14:50;;;;;;;33.90;18.13;;;;;;;3.41;100.00;100088.09;5051239;28;20045;-79
2024/02/25 07:17:15;;;;;;;34.25;18.35;;;;;;;3.44;100.00;100090.50;5051763;28;20029;-79
2024/02/25 07:19:45;;;;;;;34.05;18.55;;;;;;;3.50;100.00;100092.69;5052008;28;20435;-79
2024/02/25 07:22:11;;;;;;;35.83;19.70;;;;;;;3.57;100.00;100098.31;5051830;28;20065;-81
2024/02/25 07:24:37;;;;;;;32.78;18.90;;;;;;;3.66;100.00;100097.66;5051782;28;20033;-80
2024/02/25 07:27:03;;;;;;;32.17;19.33;;;;;;;3.79;100.00;100106.34;5034200;28;20083;-79
2024/02/25 07:29:29;;;;;;;34.33;19.02;;;;;;;3.87;100.00;100109.22;5051970;28;20110;-79
2024/02/25 07:31:54;;;;;;;35.40;19.40;;;;;;;3.91;100.00;100103.72;5050420;28;20028;-79
2024/02/25 07:34:20;;;;;;;32.38;19.23;;;;;;;3.99;100.00;100109.28;5050600;28;20037;-79
2024/02/25 07:36:45;;;;;;;35.53;19.13;;;;;;;4.03;100.00;100111.56;5050669;28;20029;-79
2024/02/25 07:39:11;;;;;;;36.25;19.65;;;;;;;4.11;100.00;100112.78;5050258;28;20124;-78
2024/02/25 07:41:37;;;;;;;29.42;18.23;;;;;;;4.20;100.00;100112.91;5051696;28;20065;-78
2024/02/25 07:44:02;;;;;;;28.48;18.23;;;;;;;4.28;100.00;100120.25;5050412;28;20348;-78
2024/02/25 07:46:29;;;;;;;29.38;17.65;;;;;;;4.32;100.00;100110.34;5051184;28;20037;-78
2024/02/25 07:48:55;;;;;;;31.27;18.08;;;;;;;4.37;100.00;100119.56;5033789;28;20119;-79
2024/02/25 07:51:21;;;;;;;27.55;17.63;;;;;;;4.45;100.00;100116.34;5051014;28;20378;-78
2024/02/25 07:53:48;;;;;;;27.23;17.55;;;;;;;4.52;100.00;100122.81;5051790;28;20036;-77
2024/02/25 07:56:17;;;;;;;28.20;17.38;;;;;;;4.54;100.00;100125.34;5049906;28;20052;-77
2024/02/25 07:58:45;;;;;;;26.25;17.65;;;;;;;4.54;100.00;100131.44;5051281;28;20108;-77
2024/02/25 08:01:11;;;;;;;25.27;16.85;;;;;;;4.54;100.00;100128.81;5049818;28;20037;-78
2024/02/25 08:03:36;;;;;;;25.02;17.10;;;;;;;4.55;100.00;100127.00;5049755;28;20112;-80
2024/02/25 08:06:02;;;;;;;30.40;17.33;;;;;;;4.59;100.00;100133.72;5051499;28;20053;-79
2024/02/25 08:08:28;;;;;;;25.48;17.13;;;;;;;4.61;100.00;100136.22;5054614;28;20090;-76
2024/02/25 08:10:54;;;;;;;23.27;15.40;;;;;;;4.64;100.00;100134.19;5054417;28;20029;-77
2024/02/25 08:13:19;;;;;;;23.60;15.50;;;;;;;4.63;100.00;100129.03;5054874;28;20462;-76
2024/02/25 08:15:44;;;;;;;25.83;16.17;;;;;;;4.63;100.00;100124.63;5054297;28;20032;-77
2024/02/25 08:18:13;;;;;;;20.83;15.57;;;;;;;4.59;100.00;100131.09;5054339;28;20449;-80
2024/02/25 08:20:38;;;;;;;27.30;16.15;;;;;;;4.67;100.00;100131.34;5054541;28;20047;-78
2024/02/25 08:23:04;;;;;;;24.42;15.18;;;;;;;4.81;100.00;100129.41;5055601;28;20037;-79
2024/02/25 08:25:29;;;;;;;23.63;14.50;;;;;;;4.95;100.00;100130.00;5054117;28;20053;-82
2024/02/25 08:27:55;;;;;;;22.30;15.38;;;;;;;5.23;100.00;100130.47;5056716;28;20079;-81
2024/02/25 08:30:22;;;;;;;22.45;14.60;;;;;;;5.59;100.00;100132.94;5056290;28;20424;-80
2024/02/25 08:32:47;;;;;;;19.90;13.70;;;;;;;5.85;100.00;100127.34;5053550;28;20060;-79
2024/02/25 08:35:13;;;;;;;18.13;12.70;;;;;;;6.05;100.00;100129.19;5054851;28;20041;-78
2024/02/25 08:37:42;;;;;;;18.20;11.60;;;;;;;6.04;100.00;100129.34;5054632;28;20033;-76
2024/02/25 08:40:07;;;;;;;17.27;12.43;;;;;;;6.20;100.00;100121.81;5053376;28;20490;-78
2024/02/25 08:42:33;;;;;;;16.98;12.27;;;;;;;6.51;100.00;100127.16;5054719;28;20087;-79
2024/02/25 08:44:58;;;;;;;15.48;11.40;;;;;;;6.85;100.00;100122.47;5054202;28;20162;-78
2024/02/25 08:47:24;;;;;;;16.00;11.25;;;;;;;6.92;100.00;100117.47;5054215;28;20120;-78
2024/02/25 08:49:49;;;;;;;16.52;10.88;;;;;;;7.16;100.00;100113.66;5036256;28;20119;-77
2024/02/25 08:52:19;;;;;;;15.00;10.63;;;;;;;7.11;100.00;100111.41;5054177;28;20132;-78
2024/02/25 08:54:45;;;;;;;12.40;9.73;;;;;;;6.87;100.00;100111.75;5054343;28;20036;-78
2024/02/25 08:57:12;;;;;;;13.65;10.25;;;;;;;6.78;100.00;100101.97;5052556;28;20340;-78
2024/02/25 08:59:37;;;;;;;12.55;9.95;;;;;;;6.60;100.00;100109.66;5035933;28;20029;-78
2024/02/25 09:02:04;;;;;;;13.45;10.60;;;;;;;6.66;100.00;100107.34;5053845;28;20328;-76
2024/02/25 09:04:31;;;;;;;11.98;9.88;;;;;;;6.75;100.00;100105.72;5053892;28;20055;-77
2024/02/25 09:07:00;;;;;;;13.98;10.07;;;;;;;6.81;100.00;100107.81;5052523;28;20021;-78
2024/02/25 09:09:29;;;;;;;14.25;9.85;;;;;;;7.04;100.00;100112.91;5054041;28;20040;-79
2024/02/25 09:11:54;;;;;;;12.65;10.57;;;;;;;7.37;100.00;100111.75;5052069;28;20032;-79
2024/02/25 09:14:20;;;;;;;10.75;9.10;;;;;;;7.85;100.00;100109.31;5053272;28;20497;-80
2024/02/25 09:16:46;;;;;;;10.18;8.40;;;;;;;8.42;100.00;100101.44;5053342;28;20029;-79
2024/02/25 09:19:12;;;;;;;9.23;7.72;;;;;;;9.46;100.00;100098.63;5053716;28;20028;-79
2024/02/25 09:21:37;;;;;;;10.15;7.25;;;;;;;10.47;100.00;100102.84;5053162;28;20021;-80
2024/02/25 09:24:03;;;;;;;8.27;7.10;;;;;;;11.24;100.00;100107.38;5053564;28;20462;-79
2024/02/25 09:26:29;;;;;;;8.88;6.90;;;;;;;12.15;100.00;100114.56;5053413;28;20120;-80
2024/02/25 09:28:54;;;;;;;9.18;6.72;;;;;;;13.09;100.00;100115.88;5053333;28;20041;-78
2024/02/25 09:31:19;;;;;;;7.47;6.03;;;;;;;13.93;100.00;100108.91;5052186;28;20033;-78
2024/02/25 09:33:54;;;;;;;5.70;5.15;;;;;;;13.97;100.00;100109.34;5052066;28;20539;-78
2024/02/25 09:36:23;;;;;;;5.28;4.75;;;;;;;14.35;100.00;100106.72;5053729;28;20029;-79
2024/02/25 09:38:52;;;;;;;7.43;5.07;;;;;;;14.94;100.00;100116.69;5053399;28;20047;-78
2024/02/25 09:41:27;;;;;;;7.40;5.13;;;;;;;14.70;100.00;100106.22;5053775;28;20079;-80
2024/02/25 09:43:53;;;;;;;7.78;5.70;;;;;;;14.77;100.00;100117.88;5052332;28;20037;-78
2024/02/25 09:46:19;;;;;;;6.43;5.13;;;;;;;14.34;100.00;100113.06;5035827;28;20071;-79
2024/02/25 09:48:50;;;;;;;8.25;5.70;;;;;;;15.04;100.00;100118.25;5053674;28;20033;-79
2024/02/25 09:51:15;;;;;;;;;;;;;;;14.15;100.00;100111.72;5054467;28;20032;-79
2024/02/25 09:53:42;;;;;;;8.18;6.60;;;;;;;14.55;100.00;100109.69;5053578;28;19917;-79
2024/02/25 09:56:09;;;;;;;9.60;7.30;;;;;;;15.09;100.00;100114.00;5052156;28;20025;-80
2024/02/25 09:58:35;;;;;;;9.65;8.10;;;;;;;13.98;100.00;100113.72;5052358;28;20559;-79
2024/02/25 10:01:00;;;;;;;9.73;7.40;;;;;;;11.93;100.00;100118.72;5053834;28;20108;-80
2024/02/25 10:03:26;;;;;;;9.35;8.25;;;;;;;12.13;100.00;100105.06;5053893;28;20114;-81
2024/02/25 10:05:56;;;;;;;9.32;8.00;;;;;;;12.81;100.00;100114.47;5052494;28;20136;-80
2024/02/25 10:08:21;;;;;;;12.27;8.82;;;;;;;14.38;100.00;100110.88;5052450;28;20033;-80
2024/02/25 10:10:47;;;;;;;11.07;8.02;;;;;;;14.93;100.00;100111.50;5051048;28;20109;-79
2024/02/25 10:13:12;;;;;;;12.57;7.90;;;;;;;15.36;100.00;100108.97;5051526;28;20403;-80
2024/02/25 10:15:40;;;;;;;10.93;7.75;;;;;;;15.05;100.00;100114.53;5052350;28;20048;-80
2024/02/25 10:18:06;;;;;;;8.85;6.95;;;;;;;15.55;100.00;100109.38;5050982;28;20029;-82
2024/02/25 10:20:31;;;;;;;10.85;7.43;;;;;;;15.56;100.00;100113.72;5052526;28;20032;-82
2024/02/25 10:23:08;;;;;;;14.35;7.55;;;;;;;15.21;100.00;100102.78;5051257;28;20493;-79
2024/02/25 10:25:34;;;;;;;9.48;6.97;;;;;;;15.49;100.00;100101.03;5052442;28;20118;-80
2024/02/25 10:28:26;;;;;;;10.07;7.28;;;;;;;15.23;100.00;100112.31;5053049;28;20036;-80
2024/02/25 10:31:00;;;;;;;;;;;;;;;14.81;100.00;100111.97;5050023;28;20124;-80
2024/02/25 10:33:26;;;;;;;10.13;7.80;;;;;;;15.32;100.00;100111.16;5051463;28;19909;-81
2024/02/25 10:35:53;;;;;;;9.77;7.32;;;;;;;15.58;100.00;100114.34;5052364;28;20104;-80
2024/02/25 10:38:19;;;;;;;12.05;6.88;;;;;;;15.52;100.00;100115.94;5052431;28;20036;-80
2024/02/25 10:40:51;;;;;;;7.68;6.55;;;;;;;15.32;100.00;100113.84;5051957;28;20045;-80
2024/02/25 10:43:17;;;;;;;;;;;;;;;14.63;100.00;100115.00;5052408;28;20029;-80
2024/02/25 10:45:43;;;;;;;7.40;5.45;;;;;;;13.93;100.00;100113.44;5051784;28;19913;-80
2024/02/25 10:48:11;;;;;;;9.15;6.05;;;;;;;12.56;100.00;100111.00;5051397;28;20509;-80
2024/02/25 10:50:38;;;;;;;6.28;5.13;;;;;;;11.97;100.00;100111.22;5051569;28;20455;-81
2024/02/25 10:53:05;;;;;;;10.02;5.60;;;;;;;12.41;100.00;100108.19;5051603;28;20049;-80
2024/02/25 10:55:32;;;;;;;7.38;4.90;;;;;;;12.66;100.00;100114.34;5052057;28;20359;-81
2024/02/25 10:58:00;;;;;;;5.93;4.80;;;;;;;12.73;100.00;100117.13;5051428;28;20375;-81
2024/02/25 11:00:26;;;;;;;9.40;4.82;;;;;;;12.60;100.00;100116.84;5050287;28;20037;-81
2024/02/25 11:02:53;;;;;;;6.13;4.30;;;;;;;11.91;100.00;100122.50;5051638;28;20036;-81
2024/02/25 11:05:19;;;;;;;9.38;4.43;;;;;;;10.61;100.00;100116.56;5050539;28;20120;-80
2024/02/25 11:07:46;;;;;;;6.55;4.63;;;;;;;9.37;100.00;100117.28;5050496;28;20035;-81